sensor_id;sensor_type;location;lat;lon;timestamp;pressure;altitude;pressure_sealevel;temperature
73937;BMP180;59249;59.736;30.568;2023-03-11T00:01:09;100163.00;;;-11.60
73937;BMP180;59249;59.736;30.568;2023-03-11T00:03:38;100152.00;;;-11.70
73937;BMP180;59249;59.736;30.568;2023-03-11T00:06:07;100167.00;;;-11.70
73937;BMP180;59249;59.736;30.568;2023-03-11T00:08:36;100173.00;;;-11.80
73937;BMP180;59249;59.736;30.568;2023-03-11T00:11:05;100159.00;;;-11.90
73937;BMP180;59249;59.736;30.568;2023-03-11T00:13:33;100168.00;;;-11.90
73937;BMP180;59249;59.736;30.568;2023-03-11T00:16:05;100160.00;;;-12.00
73937;BMP180;59249;59.736;30.568;2023-03-11T00:18:35;100165.00;;;-12.10
73937;BMP180;59249;59.736;30.568;2023-03-11T00:21:04;100154.00;;;-12.10
73937;BMP180;59249;59.736;30.568;2023-03-11T00:23:33;100151.00;;;-12.10
73937;BMP180;59249;59.736;30.568;2023-03-11T00:26:01;100161.00;;;-12.10
73937;BMP180;59249;59.736;30.568;2023-03-11T00:28:30;100159.00;;;-12.10
73937;BMP180;59249;59.736;30.568;2023-03-11T00:31:01;100155.00;;;-12.20
73937;BMP180;59249;59.736;30.568;2023-03-11T00:33:31;100165.00;;;-12.30
73937;BMP180;59249;59.736;30.568;2023-03-11T00:36:00;100158.00;;;-12.30
73937;BMP180;59249;59.736;30.568;2023-03-11T00:38:29;100153.00;;;-12.40
73937;BMP180;59249;59.736;30.568;2023-03-11T00:40:58;100153.00;;;-12.50
73937;BMP180;59249;59.736;30.568;2023-03-11T00:43:30;100145.00;;;-12.50
73937;BMP180;59249;59.736;30.568;2023-03-11T00:45:59;100143.00;;;-12.60
73937;BMP180;59249;59.736;30.568;2023-03-11T00:48:27;100138.00;;;-12.60
73937;BMP180;59249;59.736;30.568;2023-03-11T00:50:57;100142.00;;;-12.60
73937;BMP180;59249;59.736;30.568;2023-03-11T00:53:26;100136.00;;;-12.70
73937;BMP180;59249;59.736;30.568;2023-03-11T00:55:55;100129.00;;;-12.70
73937;BMP180;59249;59.736;30.568;2023-03-11T00:58:24;100128.00;;;-12.70
73937;BMP180;59249;59.736;30.568;2023-03-11T01:00:56;100137.00;;;-12.70
73937;BMP180;59249;59.736;30.568;2023-03-11T01:03:25;100131.00;;;-12.70
73937;BMP180;59249;59.736;30.568;2023-03-11T01:05:53;100130.00;;;-12.70
73937;BMP180;59249;59.736;30.568;2023-03-11T01:08:25;100129.00;;;-12.70
73937;BMP180;59249;59.736;30.568;2023-03-11T01:10:55;100119.00;;;-12.80
73937;BMP180;59249;59.736;30.568;2023-03-11T01:13:25;100126.00;;;-12.80
73937;BMP180;59249;59.736;30.568;2023-03-11T01:15:55;100132.00;;;-12.80
73937;BMP180;59249;59.736;30.568;2023-03-11T01:18:24;100123.00;;;-12.90
73937;BMP180;59249;59.736;30.568;2023-03-11T01:20:54;100125.00;;;-12.90
73937;BMP180;59249;59.736;30.568;2023-03-11T01:23:22;100126.00;;;-12.90
73937;BMP180;59249;59.736;30.568;2023-03-11T01:25:53;100129.00;;;-12.90
73937;BMP180;59249;59.736;30.568;2023-03-11T01:28:22;100129.00;;;-12.90
73937;BMP180;59249;59.736;30.568;2023-03-11T01:30:51;100123.00;;;-12.90
73937;BMP180;59249;59.736;30.568;2023-03-11T01:33:20;100130.00;;;-13.00
73937;BMP180;59249;59.736;30.568;2023-03-11T01:35:48;100129.00;;;-13.00
73937;BMP180;59249;59.736;30.568;2023-03-11T01:38:17;100128.00;;;-13.10
73937;BMP180;59249;59.736;30.568;2023-03-11T01:40:49;100126.00;;;-13.10
73937;BMP180;59249;59.736;30.568;2023-03-11T01:43:44;100117.00;;;-13.10
73937;BMP180;59249;59.736;30.568;2023-03-11T01:50:00;100120.00;;;-13.10
73937;BMP180;59249;59.736;30.568;2023-03-11T01:52:29;100118.00;;;-13.00
73937;BMP180;59249;59.736;30.568;2023-03-11T01:54:58;100109.00;;;-13.10
73937;BMP180;59249;59.736;30.568;2023-03-11T01:57:30;100113.00;;;-13.10
73937;BMP180;59249;59.736;30.568;2023-03-11T02:00:01;100106.00;;;-13.20
73937;BMP180;59249;59.736;30.568;2023-03-11T02:02:41;100109.00;;;-13.30
73937;BMP180;59249;59.736;30.568;2023-03-11T02:05:12;100114.00;;;-13.30
73937;BMP180;59249;59.736;30.568;2023-03-11T02:07:41;100113.00;;;-13.30
73937;BMP180;59249;59.736;30.568;2023-03-11T02:10:12;100101.00;;;-13.30
73937;BMP180;59249;59.736;30.568;2023-03-11T02:12:44;100104.00;;;-13.30
73937;BMP180;59249;59.736;30.568;2023-03-11T02:15:22;100109.00;;;-13.30
73937;BMP180;59249;59.736;30.568;2023-03-11T02:17:53;100107.00;;;-13.30
73937;BMP180;59249;59.736;30.568;2023-03-11T02:20:31;100105.00;;;-13.30
73937;BMP180;59249;59.736;30.568;2023-03-11T02:23:12;100108.00;;;-13.30
73937;BMP180;59249;59.736;30.568;2023-03-11T02:25:47;100103.00;;;-13.40
73937;BMP180;59249;59.736;30.568;2023-03-11T02:28:22;100099.00;;;-13.50
73937;BMP180;59249;59.736;30.568;2023-03-11T02:30:55;100096.00;;;-13.50
73937;BMP180;59249;59.736;30.568;2023-03-11T02:33:25;100094.00;;;-13.60
73937;BMP180;59249;59.736;30.568;2023-03-11T02:35:58;100102.00;;;-13.60
73937;BMP180;59249;59.736;30.568;2023-03-11T02:38:27;100102.00;;;-13.60
73937;BMP180;59249;59.736;30.568;2023-03-11T02:40:57;100103.00;;;-13.50
73937;BMP180;59249;59.736;30.568;2023-03-11T02:43:33;100108.00;;;-13.50
73937;BMP180;59249;59.736;30.568;2023-03-11T02:46:07;100112.00;;;-13.60
73937;BMP180;59249;59.736;30.568;2023-03-11T02:48:40;100100.00;;;-13.60
73937;BMP180;59249;59.736;30.568;2023-03-11T02:51:10;100115.00;;;-13.60
73937;BMP180;59249;59.736;30.568;2023-03-11T02:53:45;100109.00;;;-13.60
73937;BMP180;59249;59.736;30.568;2023-03-11T02:56:17;100102.00;;;-13.60
73937;BMP180;59249;59.736;30.568;2023-03-11T02:58:47;100094.00;;;-13.60
73937;BMP180;59249;59.736;30.568;2023-03-11T03:01:16;100095.00;;;-13.60
73937;BMP180;59249;59.736;30.568;2023-03-11T03:03:47;100087.00;;;-13.60
73937;BMP180;59249;59.736;30.568;2023-03-11T03:06:16;100091.00;;;-13.60
73937;BMP180;59249;59.736;30.568;2023-03-11T03:08:47;100087.00;;;-13.60
73937;BMP180;59249;59.736;30.568;2023-03-11T03:11:15;100086.00;;;-13.70
73937;BMP180;59249;59.736;30.568;2023-03-11T03:13:46;100074.00;;;-13.70
73937;BMP180;59249;59.736;30.568;2023-03-11T03:16:15;100067.00;;;-13.70
73937;BMP180;59249;59.736;30.568;2023-03-11T03:18:44;100060.00;;;-13.80
73937;BMP180;59249;59.736;30.568;2023-03-11T03:21:13;100057.00;;;-13.80
73937;BMP180;59249;59.736;30.568;2023-03-11T03:23:42;100060.00;;;-13.80
73937;BMP180;59249;59.736;30.568;2023-03-11T03:26:12;100067.00;;;-13.80
73937;BMP180;59249;59.736;30.568;2023-03-11T03:28:44;100061.00;;;-13.80
73937;BMP180;59249;59.736;30.568;2023-03-11T03:31:14;100043.00;;;-13.80
73937;BMP180;59249;59.736;30.568;2023-03-11T03:33:44;100041.00;;;-13.80
73937;BMP180;59249;59.736;30.568;2023-03-11T03:36:14;100045.00;;;-13.80
73937;BMP180;59249;59.736;30.568;2023-03-11T03:38:53;100038.00;;;-13.80
73937;BMP180;59249;59.736;30.568;2023-03-11T03:41:25;100036.00;;;-13.70
73937;BMP180;59249;59.736;30.568;2023-03-11T03:43:54;100041.00;;;-13.70
73937;BMP180;59249;59.736;30.568;2023-03-11T03:46:25;100047.00;;;-13.70
73937;BMP180;59249;59.736;30.568;2023-03-11T03:48:56;100029.00;;;-13.70
73937;BMP180;59249;59.736;30.568;2023-03-11T03:51:27;100026.00;;;-13.70
73937;BMP180;59249;59.736;30.568;2023-03-11T03:54:22;100030.00;;;-13.60
73937;BMP180;59249;59.736;30.568;2023-03-11T03:56:51;100023.00;;;-13.70
73937;BMP180;59249;59.736;30.568;2023-03-11T03:59:20;100032.00;;;-13.60
73937;BMP180;59249;59.736;30.568;2023-03-11T04:01:55;100037.00;;;-13.70
73937;BMP180;59249;59.736;30.568;2023-03-11T04:04:24;100034.00;;;-13.70
73937;BMP180;59249;59.736;30.568;2023-03-11T04:06:55;100042.00;;;-13.70
73937;BMP180;59249;59.736;30.568;2023-03-11T04:09:24;100032.00;;;-13.60
73937;BMP180;59249;59.736;30.568;2023-03-11T04:11:53;100027.00;;;-13.60
73937;BMP180;59249;59.736;30.568;2023-03-11T04:14:22;100028.00;;;-13.60
73937;BMP180;59249;59.736;30.568;2023-03-11T04:16:57;100032.00;;;-13.50
73937;BMP180;59249;59.736;30.568;2023-03-11T04:19:26;100019.00;;;-13.60
73937;BMP180;59249;59.736;30.568;2023-03-11T04:21:55;100017.00;;;-13.50
73937;BMP180;59249;59.736;30.568;2023-03-11T04:24:25;100016.00;;;-13.50
73937;BMP180;59249;59.736;30.568;2023-03-11T04:26:57;100025.00;;;-13.50
73937;BMP180;59249;59.736;30.568;2023-03-11T04:29:27;100028.00;;;-13.50
73937;BMP180;59249;59.736;30.568;2023-03-11T04:31:57;100020.00;;;-13.40
73937;BMP180;59249;59.736;30.568;2023-03-11T04:34:26;100022.00;;;-13.40
73937;BMP180;59249;59.736;30.568;2023-03-11T04:36:55;100015.00;;;-13.40
73937;BMP180;59249;59.736;30.568;2023-03-11T04:39:28;100020.00;;;-13.40
73937;BMP180;59249;59.736;30.568;2023-03-11T04:41:57;100005.00;;;-13.30
73937;BMP180;59249;59.736;30.568;2023-03-11T04:44:30;100013.00;;;-13.30
73937;BMP180;59249;59.736;30.568;2023-03-11T04:47:00;100022.00;;;-13.30
73937;BMP180;59249;59.736;30.568;2023-03-11T04:49:29;100014.00;;;-13.30
73937;BMP180;59249;59.736;30.568;2023-03-11T04:51:57;100013.00;;;-13.20
73937;BMP180;59249;59.736;30.568;2023-03-11T04:54:27;100007.00;;;-13.10
73937;BMP180;59249;59.736;30.568;2023-03-11T04:56:55;100006.00;;;-13.10
73937;BMP180;59249;59.736;30.568;2023-03-11T04:59:24;100008.00;;;-13.00
73937;BMP180;59249;59.736;30.568;2023-03-11T05:01:53;100001.00;;;-12.90
73937;BMP180;59249;59.736;30.568;2023-03-11T05:04:24;100002.00;;;-12.80
73937;BMP180;59249;59.736;30.568;2023-03-11T05:06:52;99998.00;;;-12.70
73937;BMP180;59249;59.736;30.568;2023-03-11T05:09:23;99981.00;;;-12.70
73937;BMP180;59249;59.736;30.568;2023-03-11T05:11:52;99994.00;;;-12.60
73937;BMP180;59249;59.736;30.568;2023-03-11T05:14:21;100003.00;;;-12.60
73937;BMP180;59249;59.736;30.568;2023-03-11T05:16:51;100002.00;;;-12.50
73937;BMP180;59249;59.736;30.568;2023-03-11T05:19:20;99999.00;;;-12.50
73937;BMP180;59249;59.736;30.568;2023-03-11T05:22:02;100000.00;;;-12.40
73937;BMP180;59249;59.736;30.568;2023-03-11T05:24:32;99995.00;;;-12.30
73937;BMP180;59249;59.736;30.568;2023-03-11T05:27:01;99987.00;;;-12.30
73937;BMP180;59249;59.736;30.568;2023-03-11T05:29:32;99984.00;;;-12.20
73937;BMP180;59249;59.736;30.568;2023-03-11T05:32:01;99968.00;;;-12.20
73937;BMP180;59249;59.736;30.568;2023-03-11T05:34:30;99972.00;;;-12.10
73937;BMP180;59249;59.736;30.568;2023-03-11T05:36:58;99969.00;;;-12.10
73937;BMP180;59249;59.736;30.568;2023-03-11T05:39:33;99959.00;;;-12.00
73937;BMP180;59249;59.736;30.568;2023-03-11T05:42:05;99950.00;;;-11.90
73937;BMP180;59249;59.736;30.568;2023-03-11T05:44:35;99950.00;;;-11.90
73937;BMP180;59249;59.736;30.568;2023-03-11T05:47:04;99953.00;;;-11.80
73937;BMP180;59249;59.736;30.568;2023-03-11T05:49:34;99951.00;;;-11.60
73937;BMP180;59249;59.736;30.568;2023-03-11T05:52:07;99940.00;;;-11.60
73937;BMP180;59249;59.736;30.568;2023-03-11T05:54:40;99947.00;;;-11.40
73937;BMP180;59249;59.736;30.568;2023-03-11T05:57:09;99948.00;;;-11.30
73937;BMP180;59249;59.736;30.568;2023-03-11T05:59:38;99944.00;;;-11.30
73937;BMP180;59249;59.736;30.568;2023-03-11T06:02:08;99947.00;;;-11.10
73937;BMP180;59249;59.736;30.568;2023-03-11T06:04:38;99945.00;;;-11.00
73937;BMP180;59249;59.736;30.568;2023-03-11T06:07:08;99943.00;;;-10.90
73937;BMP180;59249;59.736;30.568;2023-03-11T06:09:40;99941.00;;;-10.70
73937;BMP180;59249;59.736;30.568;2023-03-11T06:12:13;99937.00;;;-10.60
73937;BMP180;59249;59.736;30.568;2023-03-11T06:15:00;99934.00;;;-10.60
73937;BMP180;59249;59.736;30.568;2023-03-11T06:17:29;99929.00;;;-10.60
73937;BMP180;59249;59.736;30.568;2023-03-11T06:19:59;99929.00;;;-10.50
73937;BMP180;59249;59.736;30.568;2023-03-11T06:22:29;99928.00;;;-10.50
73937;BMP180;59249;59.736;30.568;2023-03-11T06:24:59;99929.00;;;-10.40
73937;BMP180;59249;59.736;30.568;2023-03-11T06:27:30;99923.00;;;-10.30
73937;BMP180;59249;59.736;30.568;2023-03-11T06:29:59;99933.00;;;-10.20
73937;BMP180;59249;59.736;30.568;2023-03-11T06:32:32;99927.00;;;-10.00
73937;BMP180;59249;59.736;30.568;2023-03-11T06:35:04;99919.00;;;-10.00
73937;BMP180;59249;59.736;30.568;2023-03-11T06:37:34;99919.00;;;-9.90
73937;BMP180;59249;59.736;30.568;2023-03-11T06:40:07;99915.00;;;-9.70
73937;BMP180;59249;59.736;30.568;2023-03-11T06:42:38;99910.00;;;-9.50
73937;BMP180;59249;59.736;30.568;2023-03-11T06:45:10;99917.00;;;-9.40
73937;BMP180;59249;59.736;30.568;2023-03-11T06:47:40;99911.00;;;-9.30
73937;BMP180;59249;59.736;30.568;2023-03-11T06:50:10;99902.00;;;-9.10
73937;BMP180;59249;59.736;30.568;2023-03-11T06:52:39;99892.00;;;-9.00
73937;BMP180;59249;59.736;30.568;2023-03-11T06:55:09;99898.00;;;-9.00
73937;BMP180;59249;59.736;30.568;2023-03-11T06:57:38;99893.00;;;-8.80
73937;BMP180;59249;59.736;30.568;2023-03-11T07:00:10;99896.00;;;-8.80
73937;BMP180;59249;59.736;30.568;2023-03-11T07:02:45;99888.00;;;-8.60
73937;BMP180;59249;59.736;30.568;2023-03-11T07:05:16;99883.00;;;-8.60
73937;BMP180;59249;59.736;30.568;2023-03-11T07:07:46;99875.00;;;-8.40
73937;BMP180;59249;59.736;30.568;2023-03-11T07:10:17;99863.00;;;-8.30
73937;BMP180;59249;59.736;30.568;2023-03-11T07:12:46;99862.00;;;-8.30
73937;BMP180;59249;59.736;30.568;2023-03-11T07:15:15;99869.00;;;-8.20
73937;BMP180;59249;59.736;30.568;2023-03-11T07:17:44;99862.00;;;-8.10
73937;BMP180;59249;59.736;30.568;2023-03-11T07:20:13;99862.00;;;-8.10
73937;BMP180;59249;59.736;30.568;2023-03-11T07:22:42;99843.00;;;-7.90
73937;BMP180;59249;59.736;30.568;2023-03-11T07:25:11;99841.00;;;-7.80
73937;BMP180;59249;59.736;30.568;2023-03-11T07:27:41;99830.00;;;-7.80
73937;BMP180;59249;59.736;30.568;2023-03-11T07:30:10;99839.00;;;-7.70
73937;BMP180;59249;59.736;30.568;2023-03-11T07:32:40;99836.00;;;-7.70
73937;BMP180;59249;59.736;30.568;2023-03-11T07:35:09;99835.00;;;-7.70
73937;BMP180;59249;59.736;30.568;2023-03-11T07:37:38;99832.00;;;-7.60
73937;BMP180;59249;59.736;30.568;2023-03-11T07:40:08;99832.00;;;-7.50
73937;BMP180;59249;59.736;30.568;2023-03-11T07:42:41;99823.00;;;-7.30
73937;BMP180;59249;59.736;30.568;2023-03-11T07:45:10;99820.00;;;-7.20
73937;BMP180;59249;59.736;30.568;2023-03-11T07:47:39;99810.00;;;-7.10
73937;BMP180;59249;59.736;30.568;2023-03-11T07:50:09;99805.00;;;-6.90
73937;BMP180;59249;59.736;30.568;2023-03-11T07:52:38;99801.00;;;-6.80
73937;BMP180;59249;59.736;30.568;2023-03-11T07:55:08;99792.00;;;-6.60
73937;BMP180;59249;59.736;30.568;2023-03-11T07:57:38;99799.00;;;-6.40
73937;BMP180;59249;59.736;30.568;2023-03-11T08:00:09;99795.00;;;-6.20
73937;BMP180;59249;59.736;30.568;2023-03-11T08:02:39;99790.00;;;-6.10
73937;BMP180;59249;59.736;30.568;2023-03-11T08:05:09;99782.00;;;-5.80
73937;BMP180;59249;59.736;30.568;2023-03-11T08:07:38;99781.00;;;-5.70
73937;BMP180;59249;59.736;30.568;2023-03-11T08:10:09;99773.00;;;-5.70
73937;BMP180;59249;59.736;30.568;2023-03-11T08:12:38;99765.00;;;-5.50
73937;BMP180;59249;59.736;30.568;2023-03-11T08:15:10;99768.00;;;-5.30
73937;BMP180;59249;59.736;30.568;2023-03-11T08:17:38;99760.00;;;-5.10
73937;BMP180;59249;59.736;30.568;2023-03-11T08:20:09;99753.00;;;-5.00
73937;BMP180;59249;59.736;30.568;2023-03-11T08:22:38;99749.00;;;-4.90
73937;BMP180;59249;59.736;30.568;2023-03-11T08:25:23;99745.00;;;-4.80
73937;BMP180;59249;59.736;30.568;2023-03-11T08:27:52;99754.00;;;-4.80
73937;BMP180;59249;59.736;30.568;2023-03-11T08:30:22;99743.00;;;-4.80
73937;BMP180;59249;59.736;30.568;2023-03-11T08:32:51;99740.00;;;-4.60
73937;BMP180;59249;59.736;30.568;2023-03-11T08:35:20;99731.00;;;-4.50
73937;BMP180;59249;59.736;30.568;2023-03-11T08:37:49;99728.00;;;-4.50
73937;BMP180;59249;59.736;30.568;2023-03-11T08:40:17;99716.00;;;-4.40
73937;BMP180;59249;59.736;30.568;2023-03-11T08:42:46;99688.00;;;-4.20
73937;BMP180;59249;59.736;30.568;2023-03-11T08:45:15;99704.00;;;-4.20
73937;BMP180;59249;59.736;30.568;2023-03-11T08:47:45;99685.00;;;-4.10
73937;BMP180;59249;59.736;30.568;2023-03-11T08:50:15;99685.00;;;-4.10
73937;BMP180;59249;59.736;30.568;2023-03-11T08:52:46;99689.00;;;-3.90
73937;BMP180;59249;59.736;30.568;2023-03-11T08:55:16;99679.00;;;-3.60
73937;BMP180;59249;59.736;30.568;2023-03-11T08:57:50;99661.00;;;-3.30
73937;BMP180;59249;59.736;30.568;2023-03-11T09:00:20;99664.00;;;-3.30
73937;BMP180;59249;59.736;30.568;2023-03-11T09:02:51;99655.00;;;-3.10
73937;BMP180;59249;59.736;30.568;2023-03-11T09:05:20;99640.00;;;-3.10
73937;BMP180;59249;59.736;30.568;2023-03-11T09:07:49;99649.00;;;-3.00
73937;BMP180;59249;59.736;30.568;2023-03-11T09:10:18;99641.00;;;-3.00
73937;BMP180;59249;59.736;30.568;2023-03-11T09:12:46;99636.00;;;-3.00
73937;BMP180;59249;59.736;30.568;2023-03-11T09:15:15;99622.00;;;-3.10
73937;BMP180;59249;59.736;30.568;2023-03-11T09:17:44;99622.00;;;-3.00
73937;BMP180;59249;59.736;30.568;2023-03-11T09:20:17;99597.00;;;-3.00
73937;BMP180;59249;59.736;30.568;2023-03-11T09:22:46;99603.00;;;-2.90
73937;BMP180;59249;59.736;30.568;2023-03-11T09:25:15;99583.00;;;-2.80
73937;BMP180;59249;59.736;30.568;2023-03-11T09:27:43;99583.00;;;-2.80
73937;BMP180;59249;59.736;30.568;2023-03-11T09:30:13;99581.00;;;-2.70
73937;BMP180;59249;59.736;30.568;2023-03-11T09:32:41;99586.00;;;-2.80
73937;BMP180;59249;59.736;30.568;2023-03-11T09:35:11;99570.00;;;-2.70
73937;BMP180;59249;59.736;30.568;2023-03-11T09:37:41;99574.00;;;-2.70
73937;BMP180;59249;59.736;30.568;2023-03-11T09:40:12;99555.00;;;-2.70
73937;BMP180;59249;59.736;30.568;2023-03-11T09:42:49;99564.00;;;-2.70
73937;BMP180;59249;59.736;30.568;2023-03-11T09:45:31;99542.00;;;-2.70
73937;BMP180;59249;59.736;30.568;2023-03-11T09:48:12;99532.00;;;-2.80
73937;BMP180;59249;59.736;30.568;2023-03-11T09:50:53;99533.00;;;-2.90
73937;BMP180;59249;59.736;30.568;2023-03-11T09:53:35;99535.00;;;-3.00
73937;BMP180;59249;59.736;30.568;2023-03-11T09:56:08;99526.00;;;-2.90
73937;BMP180;59249;59.736;30.568;2023-03-11T09:58:41;99512.00;;;-2.70
73937;BMP180;59249;59.736;30.568;2023-03-11T10:01:17;99506.00;;;-2.80
73937;BMP180;59249;59.736;30.568;2023-03-11T10:03:51;99475.00;;;-2.70
73937;BMP180;59249;59.736;30.568;2023-03-11T10:06:23;99480.00;;;-2.60
73937;BMP180;59249;59.736;30.568;2023-03-11T10:08:59;99484.00;;;-2.50
73937;BMP180;59249;59.736;30.568;2023-03-11T10:11:48;99478.00;;;-2.20
73937;BMP180;59249;59.736;30.568;2023-03-11T10:14:37;99469.00;;;-2.10
73937;BMP180;59249;59.736;30.568;2023-03-11T10:17:35;99463.00;;;-2.00
73937;BMP180;59249;59.736;30.568;2023-03-11T10:20:26;99457.00;;;-1.90
73937;BMP180;59249;59.736;30.568;2023-03-11T10:23:06;99442.00;;;-1.80
73937;BMP180;59249;59.736;30.568;2023-03-11T10:25:53;99433.00;;;-1.80
73937;BMP180;59249;59.736;30.568;2023-03-11T10:28:32;99432.00;;;-1.70
73937;BMP180;59249;59.736;30.568;2023-03-11T10:31:12;99422.00;;;-1.70
73937;BMP180;59249;59.736;30.568;2023-03-11T10:33:50;99411.00;;;-1.50
73937;BMP180;59249;59.736;30.568;2023-03-11T10:36:23;99402.00;;;-1.70
73937;BMP180;59249;59.736;30.568;2023-03-11T10:38:58;99398.00;;;-1.50
73937;BMP180;59249;59.736;30.568;2023-03-11T10:41:41;99389.00;;;-1.60
73937;BMP180;59249;59.736;30.568;2023-03-11T10:44:14;99376.00;;;-1.50
73937;BMP180;59249;59.736;30.568;2023-03-11T10:46:46;99350.00;;;-1.40
73937;BMP180;59249;59.736;30.568;2023-03-11T10:49:16;99377.00;;;-1.30
73937;BMP180;59249;59.736;30.568;2023-03-11T10:51:47;99384.00;;;-1.30
73937;BMP180;59249;59.736;30.568;2023-03-11T10:54:29;99361.00;;;-1.20
73937;BMP180;59249;59.736;30.568;2023-03-11T10:57:04;99373.00;;;-1.30
73937;BMP180;59249;59.736;30.568;2023-03-11T10:59:45;99349.00;;;-1.30
73937;BMP180;59249;59.736;30.568;2023-03-11T11:02:23;99346.00;;;-1.10
73937;BMP180;59249;59.736;30.568;2023-03-11T11:05:26;99339.00;;;-1.10
73937;BMP180;59249;59.736;30.568;2023-03-11T11:08:05;99326.00;;;-1.20
73937;BMP180;59249;59.736;30.568;2023-03-11T11:10:37;99318.00;;;-1.00
73937;BMP180;59249;59.736;30.568;2023-03-11T11:13:20;99297.00;;;-1.10
73937;BMP180;59249;59.736;30.568;2023-03-11T11:15:55;99296.00;;;-1.00
73937;BMP180;59249;59.736;30.568;2023-03-11T11:18:30;99286.00;;;-1.00
73937;BMP180;59249;59.736;30.568;2023-03-11T11:21:04;99280.00;;;-0.90
73937;BMP180;59249;59.736;30.568;2023-03-11T11:23:39;99262.00;;;-1.00
73937;BMP180;59249;59.736;30.568;2023-03-11T11:26:21;99254.00;;;-1.10
73937;BMP180;59249;59.736;30.568;2023-03-11T11:29:06;99258.00;;;-1.10
73937;BMP180;59249;59.736;30.568;2023-03-11T11:31:44;99252.00;;;-1.10
73937;BMP180;59249;59.736;30.568;2023-03-11T11:34:28;99247.00;;;-1.10
73937;BMP180;59249;59.736;30.568;2023-03-11T11:37:00;99242.00;;;-1.10
73937;BMP180;59249;59.736;30.568;2023-03-11T11:39:44;99223.00;;;-1.20
73937;BMP180;59249;59.736;30.568;2023-03-11T11:42:21;99206.00;;;-1.30
73937;BMP180;59249;59.736;30.568;2023-03-11T11:45:03;99206.00;;;-1.40
73937;BMP180;59249;59.736;30.568;2023-03-11T11:47:47;99175.00;;;-1.30
73937;BMP180;59249;59.736;30.568;2023-03-11T11:50:25;99187.00;;;-1.20
73937;BMP180;59249;59.736;30.568;2023-03-11T11:53:03;99182.00;;;-1.30
73937;BMP180;59249;59.736;30.568;2023-03-11T11:55:43;99185.00;;;-1.20
73937;BMP180;59249;59.736;30.568;2023-03-11T11:58:15;99167.00;;;-1.20
73937;BMP180;59249;59.736;30.568;2023-03-11T12:00:54;99145.00;;;-1.20
73937;BMP180;59249;59.736;30.568;2023-03-11T12:04:09;99149.00;;;-1.20
73937;BMP180;59249;59.736;30.568;2023-03-11T12:09:54;99133.00;;;-1.40
73937;BMP180;59249;59.736;30.568;2023-03-11T12:12:57;99117.00;;;-1.50
73937;BMP180;59249;59.736;30.568;2023-03-11T12:15:51;99110.00;;;-1.60
73937;BMP180;59249;59.736;30.568;2023-03-11T12:18:29;99102.00;;;-1.60
73937;BMP180;59249;59.736;30.568;2023-03-11T12:21:11;99098.00;;;-1.60
73937;BMP180;59249;59.736;30.568;2023-03-11T12:24:04;99088.00;;;-1.60
73937;BMP180;59249;59.736;30.568;2023-03-11T12:26:46;99101.00;;;-1.60
73937;BMP180;59249;59.736;30.568;2023-03-11T12:29:23;99092.00;;;-1.60
73937;BMP180;59249;59.736;30.568;2023-03-11T12:31:59;99088.00;;;-1.60
73937;BMP180;59249;59.736;30.568;2023-03-11T12:34:30;99085.00;;;-1.50
73937;BMP180;59249;59.736;30.568;2023-03-11T12:37:12;99072.00;;;-1.60
73937;BMP180;59249;59.736;30.568;2023-03-11T12:39:43;99077.00;;;-1.60
73937;BMP180;59249;59.736;30.568;2023-03-11T12:42:17;99055.00;;;-1.60
73937;BMP180;59249;59.736;30.568;2023-03-11T12:44:48;99047.00;;;-1.60
73937;BMP180;59249;59.736;30.568;2023-03-11T12:47:25;99048.00;;;-1.60
73937;BMP180;59249;59.736;30.568;2023-03-11T12:49:55;99035.00;;;-1.50
73937;BMP180;59249;59.736;30.568;2023-03-11T12:53:01;99029.00;;;-1.60
73937;BMP180;59249;59.736;30.568;2023-03-11T12:55:35;99021.00;;;-1.60
73937;BMP180;59249;59.736;30.568;2023-03-11T13:01:42;99014.00;;;-1.70
73937;BMP180;59249;59.736;30.568;2023-03-11T13:04:26;99007.00;;;-1.70
73937;BMP180;59249;59.736;30.568;2023-03-11T13:10:16;99006.00;;;-1.70
73937;BMP180;59249;59.736;30.568;2023-03-11T13:12:48;98997.00;;;-1.80
73937;BMP180;59249;59.736;30.568;2023-03-11T13:15:28;98959.00;;;-1.80
73937;BMP180;59249;59.736;30.568;2023-03-11T13:18:14;98966.00;;;-1.90
73937;BMP180;59249;59.736;30.568;2023-03-11T13:20:54;98970.00;;;-2.00
73937;BMP180;59249;59.736;30.568;2023-03-11T13:23:32;98952.00;;;-2.00
73937;BMP180;59249;59.736;30.568;2023-03-11T13:26:16;98952.00;;;-1.90
73937;BMP180;59249;59.736;30.568;2023-03-11T13:29:28;98943.00;;;-1.90
73937;BMP180;59249;59.736;30.568;2023-03-11T13:35:43;98903.00;;;-1.90
73937;BMP180;59249;59.736;30.568;2023-03-11T13:41:40;98916.00;;;-2.00
73937;BMP180;59249;59.736;30.568;2023-03-11T13:44:15;98885.00;;;-2.10
73937;BMP180;59249;59.736;30.568;2023-03-11T13:46:55;98919.00;;;-2.00
73937;BMP180;59249;59.736;30.568;2023-03-11T13:49:33;98881.00;;;-2.10
73937;BMP180;59249;59.736;30.568;2023-03-11T13:52:12;98924.00;;;-2.10
73937;BMP180;59249;59.736;30.568;2023-03-11T13:54:46;98914.00;;;-2.10
73937;BMP180;59249;59.736;30.568;2023-03-11T13:57:24;98919.00;;;-2.10
73937;BMP180;59249;59.736;30.568;2023-03-11T13:59:56;98917.00;;;-2.20
73937;BMP180;59249;59.736;30.568;2023-03-11T14:02:36;98913.00;;;-2.20
73937;BMP180;59249;59.736;30.568;2023-03-11T14:05:06;98900.00;;;-2.20
73937;BMP180;59249;59.736;30.568;2023-03-11T14:07:43;98897.00;;;-2.40
73937;BMP180;59249;59.736;30.568;2023-03-11T14:10:27;98891.00;;;-2.50
73937;BMP180;59249;59.736;30.568;2023-03-11T14:13:14;98880.00;;;-2.60
73937;BMP180;59249;59.736;30.568;2023-03-11T14:15:51;98868.00;;;-2.60
73937;BMP180;59249;59.736;30.568;2023-03-11T14:18:29;98868.00;;;-2.70
73937;BMP180;59249;59.736;30.568;2023-03-11T14:21:04;98859.00;;;-2.60
73937;BMP180;59249;59.736;30.568;2023-03-11T14:23:44;98863.00;;;-2.70
73937;BMP180;59249;59.736;30.568;2023-03-11T14:26:17;98856.00;;;-2.60
73937;BMP180;59249;59.736;30.568;2023-03-11T14:28:50;98852.00;;;-2.60
73937;BMP180;59249;59.736;30.568;2023-03-11T14:31:29;98833.00;;;-2.80
73937;BMP180;59249;59.736;30.568;2023-03-11T14:34:01;98821.00;;;-2.80
73937;BMP180;59249;59.736;30.568;2023-03-11T14:36:40;98817.00;;;-2.80
73937;BMP180;59249;59.736;30.568;2023-03-11T14:39:27;98816.00;;;-2.80
73937;BMP180;59249;59.736;30.568;2023-03-11T14:42:03;98800.00;;;-2.70